Time;durP1;ratioP1;P1;durP2;ratioP2;P2;SDS_P1;SDS_P2;PMS_P1;PMS_P2;Temp;Humidity;BMP_temperature;BMP_pressure;BME280_temperature;BME280_humidity;BME280_pressure;Samples;Min_cycle;Max_cycle;Signal;HPM_P1;HPM_P2
2021/10/29 00:01:59;;;;;;;44.40;30.00;;;;;;;7.25;74.35;100382.31;227377;1200;140519;-68
2021/10/29 00:07:32;;;;;;;44.60;27.40;;;;;;;7.21;73.86;100378.34;226919;1200;140202;-68
2021/10/29 00:12:35;;;;;;;44.00;30.60;;;;;;;7.22;74.30;100369.17;227765;1200;141604;-68
2021/10/29 00:17:55;;;;;;;;;;;;;;;;;;;;;
2021/10/29 00:23:00;;;;;;;45.40;27.20;;;;;;;7.29;74.42;100363.53;228639;1200;140724;-68
2021/10/29 00:28:05;;;;;;;49.30;28.10;;;;;;;7.35;74.73;100360.11;229125;1200;140415;-68
2021/10/29 00:33:18;;;;;;;38.90;27.10;;;;;;;7.44;74.46;100354.15;227777;1200;140456;-67
2021/10/29 00:38:25;;;;;;;50.90;28.70;;;;;;;7.55;74.71;100347.70;228886;1200;140560;-67
2021/10/29 00:43:43;;;;;;;45.80;29.40;;;;;;;7.65;74.64;100348.37;228647;1200;139412;-66
2021/10/29 00:48:54;;;;;;;45.20;27.30;;;;;;;7.69;74.71;100351.02;228265;1200;139658;-68
2021/10/29 00:54:02;;;;;;;38.40;28.40;;;;;;;7.68;74.48;100342.16;227605;1200;141439;-66
2021/10/29 00:59:10;;;;;;;44.60;26.30;;;;;;;7.66;74.17;100341.10;226798;1200;141400;-68
2021/10/29 01:04:17;;;;;;;40.60;25.50;;;;;;;7.65;74.27;100338.11;228100;1200;140381;-68
2021/10/29 01:09:21;;;;;;;44.60;27.10;;;;;;;7.64;74.35;100330.61;227199;1200;139827;-67
2021/10/29 01:14:28;;;;;;;48.70;28.40;;;;;;;7.62;74.35;100328.13;227268;1200;139568;-69
2021/10/29 01:19:55;;;;;;;48.30;30.10;;;;;;;7.56;74.24;100320.52;226210;1200;140294;-67
2021/10/29 01:25:10;;;;;;;46.40;28.70;;;;;;;7.54;74.35;100317.66;226560;1200;142152;-66
2021/10/29 01:30:15;;;;;;;47.30;29.90;;;;;;;7.54;74.28;100314.84;226658;1200;143020;-66
2021/10/29 01:35:40;;;;;;;41.70;27.10;;;;;;;7.50;74.77;100309.33;226556;1200;141477;-67
2021/10/29 01:40:46;;;;;;;45.50;28.70;;;;;;;7.44;74.42;100302.89;227277;1200;209903;-66
2021/10/29 01:45:51;;;;;;;41.60;28.50;;;;;;;7.38;74.34;100300.83;227054;1200;140624;-68
2021/10/29 01:51:02;;;;;;;40.20;26.20;;;;;;;7.39;74.55;100294.51;226605;1200;141383;-67
2021/10/29 01:56:18;;;;;;;;;;;;;;;;;;;;;
2021/10/29 02:01:31;;;;;;;40.20;26.30;;;;;;;7.39;74.30;100280.15;226279;1200;141498;-68
2021/10/29 02:06:39;;;;;;;49.20;30.40;;;;;;;7.29;74.11;100277.80;227278;1200;139410;-69
2021/10/29 02:11:44;;;;;;;52.00;30.50;;;;;;;7.21;73.93;100272.65;227914;1200;139987;-67
2021/10/29 02:17:08;;;;;;;;;;;;;;;;;;;;;
2021/10/29 02:22:13;;;;;;;46.70;28.30;;;;;;;7.19;74.16;100267.77;229022;1200;139829;-69
2021/10/29 02:27:18;;;;;;;46.80;27.90;;;;;;;7.21;74.29;100264.57;229166;1200;139481;-68
2021/10/29 02:32:21;;;;;;;48.00;30.70;;;;;;;7.19;73.99;100262.64;229074;1200;139717;-68
2021/10/29 02:37:34;;;;;;;50.70;27.90;;;;;;;7.17;73.64;100260.64;229137;1200;140760;-68
2021/10/29 02:42:39;;;;;;;42.70;27.20;;;;;;;7.16;73.85;100258.42;229149;1200;142828;-68
2021/10/29 02:47:47;;;;;;;47.70;30.50;;;;;;;7.15;73.82;100258.55;228257;1200;140833;-69
2021/10/29 02:52:59;;;;;;;44.10;29.50;;;;;;;7.11;73.43;100255.52;227204;1200;139585;-68
2021/10/29 02:58:08;;;;;;;48.80;28.70;;;;;;;7.04;73.23;100253.25;227090;1200;139470;-68
2021/10/29 03:03:30;;;;;;;48.10;29.00;;;;;;;6.98;73.43;100258.10;227052;1200;140398;-68
2021/10/29 03:08:38;;;;;;;44.70;30.40;;;;;;;6.94;73.52;100255.77;227850;1200;141032;-67
2021/10/29 03:13:55;;;;;;;56.90;30.10;;;;;;;6.92;73.61;100253.27;226670;1200;139635;-68
2021/10/29 03:19:16;;;;;;;50.70;28.30;;;;;;;6.88;73.68;100250.23;226535;1200;139997;-68
2021/10/29 03:24:22;;;;;;;49.00;28.10;;;;;;;6.82;73.39;100247.67;227365;1200;140024;-67
2021/10/29 03:29:50;;;;;;;;;;;;;;;;;;;;;
2021/10/29 03:34:57;;;;;;;47.00;27.20;;;;;;;6.73;73.69;100246.04;226934;1200;141474;-69
2021/10/29 03:46:26;;;;;;;46.70;28.30;;;;;;;6.49;73.56;100236.23;226974;1200;139799;-68
2021/10/29 03:52:23;;;;;;;;;;;;;;;;;;;;;
2021/10/29 03:57:28;;;;;;;46.70;27.50;;;;;;;6.33;73.45;100233.02;226779;1201;140409;-70
2021/10/29 04:02:32;;;;;;;48.80;29.50;;;;;;;6.27;73.24;100233.02;226461;1201;141532;-67
2021/10/29 04:07:46;;;;;;;42.80;29.20;;;;;;;6.24;73.25;100232.90;227305;1201;139426;-67
2021/10/29 04:13:09;;;;;;;51.60;30.30;;;;;;;6.18;73.54;100231.40;227431;1201;140808;-67
2021/10/29 04:18:22;;;;;;;48.70;30.50;;;;;;;6.15;73.64;100227.51;227345;1201;139991;-68
2021/10/29 04:23:38;;;;;;;42.60;27.90;;;;;;;6.11;73.30;100221.38;228387;1200;140873;-69
2021/10/29 04:28:43;;;;;;;48.00;29.20;;;;;;;6.07;73.31;100214.13;229128;1200;140680;-66
2021/10/29 04:33:47;;;;;;;49.00;30.80;;;;;;;6.06;73.44;100214.55;229146;1200;140548;-66
2021/10/29 04:38:51;;;;;;;48.80;29.70;;;;;;;6.06;73.49;100207.48;229015;1200;141262;-68
2021/10/29 04:43:56;;;;;;;49.30;27.50;;;;;;;6.10;73.57;100208.98;229045;1200;141563;-68
2021/10/29 04:49:01;;;;;;;43.20;26.50;;;;;;;6.10;73.27;100203.80;227681;1200;141555;-68
2021/10/29 04:54:07;;;;;;;48.70;27.50;;;;;;;6.09;73.44;100198.59;228204;1200;139983;-69
2021/10/29 04:59:16;;;;;;;42.80;27.70;;;;;;;6.11;73.49;100196.63;228584;1200;141545;-66
2021/10/29 05:04:23;;;;;;;45.60;29.90;;;;;;;6.09;73.46;100192.52;228070;1200;139475;-66
2021/10/29 05:09:28;;;;;;;38.10;27.20;;;;;;;6.07;72.98;100187.54;227741;1200;140462;-66
2021/10/29 05:14:53;;;;;;;42.30;25.30;;;;;;;6.06;73.08;100182.64;227524;1200;141266;-68
2021/10/29 05:20:07;;;;;;;40.10;26.20;;;;;;;6.07;72.95;100184.64;227208;1200;140593;-68
2021/10/29 05:25:16;;;;;;;37.40;24.20;;;;;;;6.03;72.90;100186.04;226587;1200;140973;-66
2021/10/29 05:30:29;;;;;;;46.70;29.50;;;;;;;5.97;73.16;100177.85;227387;1201;139735;-67
2021/10/29 05:35:47;;;;;;;46.10;28.10;;;;;;;5.93;73.25;100176.32;227629;1200;139771;-67
2021/10/29 05:40:58;;;;;;;40.70;27.40;;;;;;;5.93;72.75;100174.45;226876;1200;140617;-67
2021/10/29 05:46:02;;;;;;;45.40;26.80;;;;;;;5.91;72.84;100177.84;227550;1200;139445;-69
2021/10/29 05:51:42;;;;;;;;;;;;;;;;;;;;;
2021/10/29 05:56:47;;;;;;;42.90;27.30;;;;;;;5.93;72.78;100182.30;228271;1200;140722;-67
2021/10/29 06:01:58;;;;;;;40.90;25.00;;;;;;;6.00;72.89;100183.73;228202;1200;139973;-68
2021/10/29 06:07:18;;;;;;;;;;;;;;;;;;;;;
2021/10/29 06:12:44;;;;;;;;;;;;;;;;;;;;;
2021/10/29 06:17:49;;;;;;;49.80;27.70;;;;;;;6.16;72.52;100187.81;228531;1200;141878;-67
2021/10/29 06:23:04;;;;;;;38.10;27.10;;;;;;;6.23;72.53;100191.36;228040;1201;140508;-66
2021/10/29 06:33:20;;;;;;;44.30;26.40;;;;;;;6.36;72.17;100208.06;229182;1200;141112;-67
2021/10/29 06:38:24;;;;;;;37.80;24.60;;;;;;;6.43;72.14;100213.98;229089;1200;140187;-68
2021/10/29 06:43:38;;;;;;;39.40;25.30;;;;;;;6.57;72.25;100216.80;229215;1200;140956;-69
2021/10/29 07:43:47;;;;;;;35.70;22.10;;;;;;;7.83;70.71;100214.69;226685;1200;126541;-68
2021/10/29 07:49:06;;;;;;;37.70;23.10;;;;;;;7.97;70.57;100213.90;226062;1200;142281;-65
2021/10/29 07:54:13;;;;;;;34.90;22.30;;;;;;;8.13;70.33;100217.18;226528;1201;140617;-66
2021/10/29 07:59:38;;;;;;;;;;;;;;;;;;;;;
2021/10/29 08:04:46;;;;;;;32.80;21.40;;;;;;;8.51;70.02;100216.67;226345;1200;142806;-65
2021/10/29 08:09:51;;;;;;;28.40;18.60;;;;;;;8.72;69.52;100214.92;226508;1201;139863;-69
2021/10/29 08:14:56;;;;;;;29.60;20.30;;;;;;;8.94;69.38;100217.96;226629;1200;139651;-70
2021/10/29 08:20:23;;;;;;;23.10;18.50;;;;;;;9.17;69.09;100215.42;226039;1200;140537;-68
2021/10/29 08:25:36;;;;;;;25.90;14.60;;;;;;;9.43;68.70;100216.95;228450;1200;140718;-69
2021/10/29 08:30:40;;;;;;;20.40;10.50;;;;;;;9.67;68.11;100212.26;226737;1200;140094;-68
2021/10/29 08:35:46;;;;;;;23.00;11.80;;;;;;;9.96;67.48;100210.29;229174;1200;141318;-69
2021/10/29 08:40:53;;;;;;;16.60;12.80;;;;;;;10.24;66.95;100208.36;228935;1200;140169;-67
2021/10/29 08:46:01;;;;;;;23.10;13.30;;;;;;;10.50;66.12;100209.52;228925;1200;140160;-67
2021/10/29 08:51:06;;;;;;;16.30;10.60;;;;;;;10.77;65.53;100208.77;228924;1200;141094;-69
2021/10/29 08:56:58;;;;;;;18.20;11.20;;;;;;;11.00;65.18;100207.54;228464;1200;141723;-70
2021/10/29 09:35:39;;;;;;;16.10;11.60;;;;;;;12.32;61.88;100215.10;226464;1200;139549;-69
2021/10/29 09:41:28;;;;;;;12.60;11.10;;;;;;;12.51;61.27;100209.80;225942;1201;139961;-66
2021/10/29 09:46:40;;;;;;;16.70;12.60;;;;;;;12.70;60.49;100208.27;226346;1201;140916;-69
2021/10/29 09:58:04;;;;;;;14.30;10.20;;;;;;;13.01;59.29;100207.33;225832;1201;140206;-70
2021/10/29 10:03:36;;;;;;;16.50;9.80;;;;;;;13.20;59.16;100201.30;226141;1202;140853;-68
2021/10/29 10:08:42;;;;;;;13.20;10.00;;;;;;;13.38;58.51;100196.35;226577;1201;140410;-69
2021/10/29 10:14:44;;;;;;;;;;;;;;;;;;;;;
2021/10/29 10:19:59;;;;;;;11.80;9.30;;;;;;;13.90;57.72;100185.81;227111;1200;141224;-72
2021/10/29 10:26:05;;;;;;;12.10;9.50;;;;;;;14.13;56.61;100184.41;225876;1200;141232;-71
2021/10/29 10:47:22;;;;;;;11.40;8.70;;;;;;;15.01;53.78;100161.31;227773;1205;140391;-73
2021/10/29 10:52:31;;;;;;;10.70;7.90;;;;;;;15.20;53.14;100162.14;228865;1200;140777;-72
2021/10/29 11:15:26;;;;;;;13.00;8.50;;;;;;;15.86;50.42;100146.79;226458;1200;140166;-70
2021/10/29 11:21:34;;;;;;;;;;;;;;;;;;;;;
2021/10/29 11:27:25;;;;;;;14.80;9.30;;;;;;;16.16;49.39;100129.22;226935;1200;140141;-70
2021/10/29 11:33:01;;;;;;;13.90;7.90;;;;;;;16.24;48.60;100122.94;226790;1200;140604;-70
2021/10/29 11:38:49;;;;;;;7.80;6.20;;;;;;;16.30;48.20;100120.48;226197;1200;139550;-69
2021/10/29 11:44:50;;;;;;;9.80;7.90;;;;;;;16.39;47.78;100118.77;226537;1200;139070;-69
2021/10/29 11:49:53;;;;;;;12.30;8.90;;;;;;;16.48;47.30;100115.89;225882;1200;141034;-71
2021/10/29 11:55:02;;;;;;;11.80;9.50;;;;;;;16.57;47.28;100112.83;226006;1200;140488;-71
2021/10/29 12:00:39;;;;;;;12.80;8.80;;;;;;;16.63;46.97;100112.48;226549;1200;139885;-72
2021/10/29 12:06:14;;;;;;;11.50;9.90;;;;;;;16.67;46.86;100107.30;226167;1200;140116;-71
2021/10/29 12:11:19;;;;;;;9.80;6.90;;;;;;;16.74;47.12;100101.88;228100;1200;141055;-71
2021/10/29 12:16:36;;;;;;;11.60;9.20;;;;;;;16.75;46.21;100100.27;226573;1200;138986;-71
2021/10/29 12:22:49;;;;;;;13.10;8.60;;;;;;;16.68;45.78;100092.06;225892;1200;141225;-71
2021/10/29 12:27:55;;;;;;;16.60;8.20;;;;;;;16.74;45.69;100085.24;226060;1200;140038;-70
2021/10/29 12:39:09;;;;;;;19.90;10.60;;;;;;;16.82;45.48;100078.31;227541;1200;141661;-71
2021/10/29 13:06:49;;;;;;;13.40;8.90;;;;;;;16.86;44.99;100070.48;228812;1200;139395;-71
2021/10/29 13:12:23;;;;;;;13.50;9.90;;;;;;;16.79;44.74;100066.78;226583;1200;139588;-70
2021/10/29 13:17:36;;;;;;;19.20;11.30;;;;;;;16.78;45.00;100064.75;227437;1200;141400;-71
2021/10/29 13:50:52;;;;;;;;;;;;;;;;;;;;;
2021/10/29 14:30:21;;;;;;;11.90;9.30;;;;;;;15.64;45.51;100038.81;225437;1203;140173;-70
2021/10/29 14:35:58;;;;;;;16.60;10.60;;;;;;;15.49;45.57;100040.97;226026;1200;141428;-69
2021/10/29 14:41:37;;;;;;;14.30;8.60;;;;;;;15.26;45.74;100038.44;227379;1200;141357;-70
2021/10/29 14:47:09;;;;;;;15.70;9.80;;;;;;;15.04;45.85;100042.98;226998;1200;140593;-70
2021/10/29 15:16:11;;;;;;;;;;;;;;;13.69;48.10;100036.23;226106;1200;140264;-70
2021/10/29 15:48:53;;;;;;;25.30;16.80;;;;;;;12.30;51.84;100019.50;225933;1200;140604;-70
2021/10/29 15:53:28;;;;;;;30.00;18.00;;;;;;;12.14;52.40;100015.50;225964;1200;139254;-70
2021/10/29 15:58:45;;;;;;;19.90;15.90;;;;;;;11.99;52.64;100016.42;226676;1200;140158;-70
2021/10/29 16:20:27;;;;;;;18.40;13.70;;;;;;;11.64;54.44;100010.19;226823;1200;139677;-70
2021/10/29 16:25:36;;;;;;;20.50;15.30;;;;;;;11.56;54.76;100006.77;227758;1200;139198;-70
2021/10/29 16:30:40;;;;;;;22.00;14.30;;;;;;;11.50;54.83;100003.34;228920;1200;142012;-69
2021/10/29 16:35:45;;;;;;;22.10;13.90;;;;;;;11.47;54.96;100004.02;227276;1200;140271;-69
2021/10/29 16:40:50;;;;;;;29.40;15.60;;;;;;;11.41;55.24;99999.23;227827;1200;140012;-68
2021/10/29 16:46:32;;;;;;;27.20;16.50;;;;;;;11.33;55.36;99995.41;226695;1200;140305;-69
2021/10/29 16:51:59;;;;;;;19.70;15.40;;;;;;;11.20;55.57;99995.02;229071;1200;140537;-69
2021/10/29 16:57:28;;;;;;;;;;;;;;;;;;;;;
2021/10/29 17:02:32;;;;;;;20.90;13.20;;;;;;;11.04;56.38;100000.26;229068;1200;140128;-69
2021/10/29 17:07:37;;;;;;;22.50;15.50;;;;;;;10.95;56.57;99999.15;229114;1200;140185;-70
2021/10/29 17:12:45;;;;;;;21.60;14.90;;;;;;;10.90;56.81;99993.58;228437;1200;139941;-70
2021/10/29 17:18:22;;;;;;;;;;;;;;;;;;;;;
2021/10/29 17:23:37;;;;;;;23.60;16.00;;;;;;;10.78;57.56;99989.81;228342;1200;139435;-71
2021/10/29 17:28:48;;;;;;;24.70;17.20;;;;;;;10.70;57.71;99990.23;226281;1200;140003;-70
2021/10/29 17:33:59;;;;;;;27.50;17.50;;;;;;;10.65;57.87;99997.70;227760;1200;140221;-69
2021/10/29 17:39:26;;;;;;;;;;;;;;;;;;;;;
2021/10/29 17:44:38;;;;;;;28.10;17.20;;;;;;;10.45;58.45;99991.39;226586;1200;140026;-69
2021/10/29 17:49:46;;;;;;;27.00;17.30;;;;;;;10.36;58.71;99996.83;226047;1201;139601;-67
2021/10/29 17:54:54;;;;;;;27.70;18.00;;;;;;;10.27;59.05;99989.98;226451;1200;139559;-73
2021/10/29 18:00:01;;;;;;;24.30;16.60;;;;;;;10.17;59.10;99986.20;226110;1200;140017;-70
2021/10/29 18:05:20;;;;;;;23.80;18.50;;;;;;;10.06;59.37;99987.89;226516;1200;140728;-70
2021/10/29 18:10:32;;;;;;;31.60;19.10;;;;;;;9.97;59.78;99986.41;227482;1200;140445;-74
2021/10/29 18:16:26;;;;;;;;;;;;;;;;;;;;;
2021/10/29 18:22:00;;;;;;;29.30;18.80;;;;;;;9.79;60.05;99980.31;226568;1200;139885;-71
2021/10/29 18:27:08;;;;;;;27.80;17.90;;;;;;;9.73;60.21;99978.98;226723;1200;141404;-73
2021/10/29 18:32:18;;;;;;;32.30;20.50;;;;;;;9.68;60.32;99972.72;227127;1201;139708;-71
2021/10/29 18:37:29;;;;;;;17.90;14.00;;;;;;;9.65;60.24;99972.34;227470;1200;139730;-69
2021/10/29 18:42:36;;;;;;;23.80;14.60;;;;;;;9.58;60.58;99972.21;226703;1200;142157;-71
2021/10/29 18:48:13;;;;;;;22.00;15.10;;;;;;;9.54;60.50;99969.96;226611;1200;140278;-68
2021/10/29 18:53:18;;;;;;;24.80;13.20;;;;;;;9.55;60.58;99962.84;229029;1200;139491;-70
2021/10/29 18:58:41;;;;;;;26.10;16.00;;;;;;;9.59;60.50;99965.20;229242;1200;140015;-69
2021/10/29 19:03:46;;;;;;;26.20;15.80;;;;;;;9.64;60.39;99959.54;228150;1201;140515;-69
2021/10/29 19:08:51;;;;;;;21.20;13.90;;;;;;;9.67;60.12;99963.27;228967;1200;139518;-70
2021/10/29 19:13:59;;;;;;;21.50;13.40;;;;;;;9.71;59.99;99967.37;229227;1200;141203;-69
2021/10/29 19:19:18;;;;;;;25.60;14.20;;;;;;;9.72;59.83;99966.04;229182;1200;140267;-69
2021/10/29 19:24:28;;;;;;;16.60;11.30;;;;;;;9.74;59.55;99970.66;228208;1200;141224;-69
2021/10/29 19:29:42;;;;;;;;;;;;;;;;;;;;;
2021/10/29 19:35:37;;;;;;;;;;;;;;;;;;;;;
2021/10/29 19:40:52;;;;;;;18.40;11.90;;;;;;;9.75;59.29;99977.17;226794;1201;141586;-72
2021/10/29 19:46:02;;;;;;;15.60;11.00;;;;;;;9.71;59.15;99979.57;227839;1200;141241;-69
2021/10/29 19:51:09;;;;;;;17.20;12.80;;;;;;;9.65;58.89;99983.21;227391;1200;139578;-69
2021/10/29 19:56:18;;;;;;;16.90;13.30;;;;;;;9.53;58.89;99974.98;227382;1200;140037;-69
2021/10/29 20:01:27;;;;;;;26.30;13.10;;;;;;;9.40;58.91;99972.02;226551;1200;139157;-71
2021/10/29 20:06:44;;;;;;;20.70;14.30;;;;;;;9.29;58.87;99973.73;226217;1200;139517;-69
2021/10/29 20:11:54;;;;;;;16.40;11.60;;;;;;;9.20;59.01;99974.38;226322;1200;140093;-71
2021/10/29 20:16:59;;;;;;;24.40;14.60;;;;;;;9.19;59.12;99969.02;227053;1200;139963;-71
2021/10/29 20:22:28;;;;;;;22.10;12.70;;;;;;;9.19;59.15;99964.77;227427;1200;139860;-69
2021/10/29 20:27:40;;;;;;;16.00;9.40;;;;;;;9.20;59.13;99961.16;226737;1200;140232;-67
2021/10/29 20:33:21;;;;;;;18.30;12.90;;;;;;;9.20;58.93;99958.82;227637;1200;139776;-70
2021/10/29 20:38:37;;;;;;;20.80;11.70;;;;;;;9.20;59.16;99958.13;226447;1200;140120;-69
2021/10/29 20:43:51;;;;;;;22.00;13.50;;;;;;;9.20;59.03;99957.96;227357;1200;140043;-68
2021/10/29 20:49:11;;;;;;;24.60;13.90;;;;;;;9.20;59.02;99963.25;227499;1200;140048;-69
2021/10/29 20:54:20;;;;;;;19.90;13.40;;;;;;;9.21;59.00;99964.79;227305;1200;141047;-69
2021/10/29 20:59:25;;;;;;;18.80;12.10;;;;;;;9.22;58.94;99963.35;228733;1200;139781;-68
2021/10/29 21:04:34;;;;;;;20.20;13.40;;;;;;;9.21;59.04;99962.58;228983;1200;140628;-68
2021/10/29 21:09:40;;;;;;;22.30;14.90;;;;;;;9.19;58.97;99961.89;228866;1200;139232;-74
2021/10/29 21:14:48;;;;;;;29.30;17.20;;;;;;;9.16;58.87;99956.64;228958;1200;140702;-71
2021/10/29 21:19:53;;;;;;;23.40;16.30;;;;;;;9.10;58.91;99958.49;228685;1201;140219;-67
2021/10/29 21:24:58;;;;;;;25.30;15.50;;;;;;;9.04;58.97;99950.40;228387;1200;141552;-67
2021/10/29 21:30:05;;;;;;;27.20;17.10;;;;;;;8.95;58.92;99947.24;227365;1201;141126;-68
2021/10/29 21:35:24;;;;;;;27.30;16.00;;;;;;;8.87;59.13;99947.09;227694;1200;140022;-69
2021/10/29 21:40:34;;;;;;;25.20;16.10;;;;;;;8.77;59.40;99939.04;227958;1200;141445;-68
2021/10/29 21:46:22;;;;;;;;;;;;;;;;;;;;;
2021/10/29 21:51:28;;;;;;;30.50;20.20;;;;;;;8.63;59.60;99940.25;226543;1201;141447;-68
2021/10/29 21:56:33;;;;;;;31.20;17.80;;;;;;;8.56;60.01;99939.25;227471;1200;140357;-70
2021/10/29 22:02:00;;;;;;;;;;;;;;;;;;;;;
2021/10/29 22:07:59;;;;;;;;;;;;;;;;;;;;;
2021/10/29 22:13:25;;;;;;;;;;;;;;;;;;;;;
2021/10/29 22:18:57;;;;;;;33.80;21.10;;;;;;;8.25;60.54;99945.05;226151;1200;142003;-68
2021/10/29 22:24:20;;;;;;;33.70;20.70;;;;;;;8.22;60.37;99943.04;226703;1201;139743;-70
2021/10/29 22:29:29;;;;;;;30.00;20.00;;;;;;;8.21;60.87;99945.13;227204;1200;139778;-67
2021/10/29 22:34:34;;;;;;;34.50;21.50;;;;;;;8.14;60.84;99942.54;227074;1202;139539;-68
2021/10/29 22:39:42;;;;;;;32.00;21.00;;;;;;;8.08;60.98;99949.89;228705;1202;142807;-73
2021/10/29 22:45:12;;;;;;;31.90;18.60;;;;;;;8.03;61.14;99951.95;227122;1200;139317;-69
2021/10/29 22:50:21;;;;;;;26.30;18.90;;;;;;;7.93;61.31;99946.09;227780;1200;138786;-67
2021/10/29 22:55:26;;;;;;;30.00;18.70;;;;;;;7.85;61.50;99947.69;228447;1201;139113;-68
2021/10/29 23:00:33;;;;;;;32.30;17.70;;;;;;;7.79;61.58;99951.88;228358;1200;140885;-68
2021/10/29 23:05:51;;;;;;;28.00;17.90;;;;;;;7.71;61.58;99952.52;228313;1200;140950;-68
2021/10/29 23:11:22;;;;;;;34.80;20.80;;;;;;;7.61;61.80;99955.81;228858;1200;139786;-68
2021/10/29 23:16:27;;;;;;;37.20;21.30;;;;;;;7.58;62.08;99963.14;229117;1200;141503;-68
2021/10/29 23:22:13;;;;;;;35.40;20.80;;;;;;;7.63;61.78;99959.02;227336;1200;139843;-68
2021/10/29 23:27:16;;;;;;;31.40;21.90;;;;;;;7.64;62.09;99960.83;228280;1200;140283;-68
2021/10/29 23:32:33;;;;;;;57.90;36.20;;;;;;;7.64;62.20;99960.71;228290;1200;140054;-69
2021/10/29 23:37:40;;;;;;;42.90;23.70;;;;;;;7.64;61.95;99971.77;226671;1200;141317;-69
2021/10/29 23:42:47;;;;;;;;;;;;;;;7.59;62.05;99970.86;228017;1200;139850;-69
2021/10/29 23:47:57;;;;;;;29.70;18.80;;;;;;;7.49;61.89;99965.13;228171;1200;127894;-66
2021/10/29 23:53:02;;;;;;;29.00;18.20;;;;;;;7.45;61.90;99964.77;227900;1200;140111;-68
2021/10/29 23:58:10;;;;;;;32.40;18.10;;;;;;;7.43;62.05;99959.59;226419;1201;140342;-65
